Time;durP1;ratioP1;P1;durP2;ratioP2;P2;SDS_P1;SDS_P2;PMS_P1;PMS_P2;Temp;Humidity;BMP_temperature;BMP_pressure;BME280_temperature;BME280_humidity;BME280_pressure;Samples;Min_cycle;Max_cycle;Signal;HPM_P1;HPM_P2
2022/12/08 00:00:28;;;;;;;25.17;16.60;;;4.50;99.90;;;;;;4954670;28;20055;-51
2022/12/08 00:02:53;;;;;;;23.77;14.98;;;4.50;99.90;;;;;;4954074;28;20236;-49
2022/12/08 00:10:47;;;;;;;26.13;14.07;;;4.60;99.90;;;;;;4954885;29;20038;-48
2022/12/08 00:13:12;;;;;;;23.63;15.25;;;4.60;99.90;;;;;;4953457;28;20404;-50
2022/12/08 00:15:38;;;;;;;28.70;15.30;;;4.60;99.90;;;;;;4954532;28;20376;-54
2022/12/08 00:18:04;;;;;;;24.92;14.30;;;4.60;99.90;;;;;;4954611;28;20027;-50
2022/12/08 00:20:29;;;;;;;23.30;14.95;;;4.50;99.90;;;;;;4954364;28;20054;-49
2022/12/08 00:22:55;;;;;;;25.13;15.07;;;4.60;99.90;;;;;;4953617;28;20019;-51
2022/12/08 00:25:21;;;;;;;28.63;14.77;;;4.60;99.90;;;;;;4954657;28;20031;-51
2022/12/08 00:27:46;;;;;;;25.52;14.90;;;4.60;99.90;;;;;;4954267;28;20030;-53
2022/12/08 00:30:15;;;;;;;22.38;15.18;;;4.60;99.90;;;;;;4954411;28;20027;-48
2022/12/08 00:32:41;;;;;;;24.50;14.80;;;4.60;99.90;;;;;;4953577;28;20086;-54
2022/12/08 00:35:07;;;;;;;22.30;15.45;;;4.60;99.90;;;;;;4953398;28;20039;-50
2022/12/08 00:37:32;;;;;;;32.72;16.33;;;4.60;99.90;;;;;;4954085;28;20086;-51
2022/12/08 00:39:58;;;;;;;30.73;17.40;;;4.60;99.90;;;;;;4954310;28;20031;-47
2022/12/08 00:42:23;;;;;;;27.98;16.42;;;4.50;99.90;;;;;;4953419;28;20031;-54
2022/12/08 00:44:48;;;;;;;26.55;16.77;;;4.50;99.90;;;;;;4954318;28;20511;-48
2022/12/08 00:47:14;;;;;;;26.63;16.10;;;4.50;99.90;;;;;;4954091;28;20038;-49
2022/12/08 00:49:40;;;;;;;28.75;17.20;;;4.50;99.90;;;;;;4954154;28;20027;-50
2022/12/08 00:52:06;;;;;;;29.77;16.88;;;4.50;99.90;;;;;;4953426;28;20051;-48
2022/12/08 00:54:31;;;;;;;33.75;16.85;;;4.50;99.90;;;;;;4954294;28;20514;-50
2022/12/08 00:56:57;;;;;;;30.50;16.85;;;4.50;99.90;;;;;;4953700;28;20023;-49
2022/12/08 00:59:22;;;;;;;25.35;16.55;;;4.50;99.90;;;;;;4954061;28;20031;-54
2022/12/08 01:01:48;;;;;;;24.90;16.08;;;4.50;99.90;;;;;;4953596;28;20110;-46
2022/12/08 01:04:16;;;;;;;27.17;15.93;;;4.50;99.90;;;;;;4953225;28;20028;-52
2022/12/08 01:06:42;;;;;;;28.88;16.15;;;4.50;99.90;;;;;;4953722;28;20031;-50
2022/12/08 01:09:08;;;;;;;30.60;17.05;;;4.60;99.90;;;;;;4953780;28;20035;-49
2022/12/08 01:11:35;;;;;;;26.77;16.48;;;4.60;99.90;;;;;;4953180;28;20170;-48
2022/12/08 01:14:01;;;;;;;33.95;16.83;;;4.60;99.90;;;;;;4952903;28;20034;-52
2022/12/08 01:16:29;;;;;;;31.05;18.10;;;4.60;99.90;;;;;;4952417;28;20027;-48
2022/12/08 01:18:56;;;;;;;30.75;16.67;;;4.60;99.90;;;;;;4953411;28;20035;-48
2022/12/08 01:21:22;;;;;;;27.80;16.55;;;4.60;99.90;;;;;;4953462;28;20046;-47
2022/12/08 01:23:47;;;;;;;28.52;17.73;;;4.60;99.90;;;;;;4952831;28;20015;-49
2022/12/08 01:26:15;;;;;;;27.80;18.15;;;4.60;99.90;;;;;;4953715;28;20032;-57
2022/12/08 01:28:42;;;;;;;27.40;16.02;;;4.70;99.90;;;;;;4953496;28;20090;-51
2022/12/08 01:31:13;;;;;;;25.30;16.70;;;4.60;99.90;;;;;;4953494;28;20043;-52
2022/12/08 01:33:39;;;;;;;26.92;17.42;;;4.70;99.90;;;;;;4951550;28;20035;-52
2022/12/08 01:36:05;;;;;;;29.48;16.33;;;4.70;99.90;;;;;;4953445;28;20384;-51
2022/12/08 01:38:31;;;;;;;25.85;16.05;;;4.60;99.90;;;;;;4953351;28;20031;-53
2022/12/08 01:40:57;;;;;;;25.48;16.63;;;4.60;99.90;;;;;;4953286;28;20035;-52
2022/12/08 01:43:22;;;;;;;25.08;16.63;;;4.60;99.90;;;;;;4952562;28;20035;-54
2022/12/08 01:45:48;;;;;;;27.58;16.85;;;4.70;99.90;;;;;;4953338;28;20103;-49
2022/12/08 01:48:19;;;;;;;27.45;15.75;;;4.60;99.90;;;;;;4953347;28;20051;-49
2022/12/08 01:50:47;;;;;;;24.98;15.95;;;4.60;99.90;;;;;;4953448;28;20566;-48
2022/12/08 01:53:20;;;;;;;26.35;16.23;;;4.60;99.90;;;;;;4952422;28;20031;-51
2022/12/08 01:55:53;;;;;;;25.80;15.65;;;4.50;99.90;;;;;;4955364;28;20441;-50
2022/12/08 01:58:33;;;;;;;25.63;15.20;;;4.60;99.90;;;;;;4954758;28;20034;-46
2022/12/08 02:00:59;;;;;;;22.27;15.02;;;4.60;99.90;;;;;;4953156;28;20058;-48
2022/12/08 02:03:32;;;;;;;26.92;15.63;;;4.60;99.90;;;;;;4952461;28;20031;-49
2022/12/08 02:05:58;;;;;;;24.75;15.50;;;4.60;99.90;;;;;;4953371;28;20027;-48
2022/12/08 02:08:24;;;;;;;23.50;13.98;;;4.60;99.90;;;;;;4953110;28;20602;-52
2022/12/08 02:10:51;;;;;;;25.27;14.20;;;4.60;99.90;;;;;;4953152;28;20019;-51
2022/12/08 02:13:19;;;;;;;26.75;14.38;;;4.60;99.90;;;;;;4952310;28;20035;-48
2022/12/08 02:16:11;;;;;;;23.30;14.55;;;4.60;99.90;;;;;;4953069;28;20039;-48
2022/12/08 02:18:47;;;;;;;22.80;14.27;;;4.60;99.90;;;;;;4952928;28;20117;-55
2022/12/08 02:21:16;;;;;;;25.75;14.50;;;4.50;99.90;;;;;;4954518;28;20027;-52
2022/12/08 02:24:01;;;;;;;20.00;13.45;;;4.50;99.90;;;;;;4956891;28;20019;-54
2022/12/08 02:26:46;;;;;;;23.77;15.90;;;4.50;99.90;;;;;;4956668;28;20399;-51
2022/12/08 02:29:39;;;;;;;26.67;15.52;;;4.50;99.90;;;;;;4956594;28;20033;-49
2022/12/08 02:32:16;;;;;;;26.95;14.35;;;4.50;99.90;;;;;;4955895;28;20027;-51
2022/12/08 02:34:54;;;;;;;24.10;14.65;;;4.50;99.90;;;;;;4954698;28;20058;-51
2022/12/08 02:37:20;;;;;;;23.65;14.88;;;4.50;99.90;;;;;;4956422;28;20027;-51
2022/12/08 02:40:01;;;;;;;21.63;14.52;;;4.50;99.90;;;;;;4956460;28;20439;-52
2022/12/08 02:42:36;;;;;;;25.90;14.77;;;4.50;99.90;;;;;;4955706;28;20063;-49
2022/12/08 02:45:28;;;;;;;29.70;14.10;;;4.60;99.90;;;;;;4956397;28;20034;-53
2022/12/08 02:47:54;;;;;;;28.27;15.98;;;4.50;99.90;;;;;;4956200;28;20541;-49
2022/12/08 02:50:19;;;;;;;23.48;15.90;;;4.50;99.90;;;;;;4956271;28;20118;-48
2022/12/08 02:52:46;;;;;;;23.90;15.02;;;4.50;99.90;;;;;;4955370;28;20025;-52
2022/12/08 02:55:18;;;;;;;25.90;16.55;;;4.50;99.90;;;;;;4956122;28;20023;-54
2022/12/08 02:58:04;;;;;;;26.10;15.98;;;4.50;99.90;;;;;;4955899;28;20377;-48
2022/12/08 03:01:01;;;;;;;28.33;15.95;;;4.60;99.90;;;;;;4954808;28;20046;-49
2022/12/08 03:03:42;;;;;;;29.88;16.40;;;4.50;99.90;;;;;;4954275;28;20399;-48
2022/12/08 03:06:24;;;;;;;28.65;17.23;;;4.60;99.90;;;;;;4955615;28;20105;-50
2022/12/08 03:09:08;;;;;;;33.40;16.23;;;4.50;99.90;;;;;;4955967;28;20078;-48
2022/12/08 03:11:41;;;;;;;28.05;15.32;;;4.50;99.90;;;;;;4955915;28;20027;-53
2022/12/08 03:14:09;;;;;;;24.48;15.50;;;4.50;99.90;;;;;;4955100;28;20483;-51
2022/12/08 03:16:38;;;;;;;26.08;15.55;;;4.40;99.90;;;;;;4955582;28;20114;-50
2022/12/08 03:19:33;;;;;;;26.63;16.27;;;4.50;99.90;;;;;;4955996;28;20035;-50
2022/12/08 03:22:03;;;;;;;28.38;15.40;;;4.50;99.90;;;;;;4954583;28;20542;-48
2022/12/08 03:24:38;;;;;;;22.33;15.30;;;4.50;99.90;;;;;;4955663;28;20546;-50
2022/12/08 03:27:18;;;;;;;34.70;16.77;;;4.50;99.90;;;;;;4954126;28;20027;-51
2022/12/08 03:29:45;;;;;;;23.70;14.80;;;4.50;99.90;;;;;;4955588;28;20023;-49
2022/12/08 03:32:16;;;;;;;23.02;12.98;;;4.50;99.90;;;;;;4954686;28;20402;-48
2022/12/08 03:34:44;;;;;;;21.65;14.07;;;4.50;99.90;;;;;;4953706;28;20067;-51
2022/12/08 03:37:10;;;;;;;24.42;15.25;;;4.40;99.90;;;;;;4955057;28;20058;-54
2022/12/08 03:39:36;;;;;;;24.05;14.27;;;4.40;99.90;;;;;;4955330;28;20102;-52
2022/12/08 03:42:01;;;;;;;26.60;14.98;;;4.40;99.90;;;;;;4954459;28;20407;-48
2022/12/08 03:44:27;;;;;;;24.48;14.35;;;4.40;99.90;;;;;;4955194;28;20027;-50
2022/12/08 03:46:52;;;;;;;20.88;14.43;;;4.40;99.90;;;;;;4955175;28;20034;-47
2022/12/08 03:49:18;;;;;;;22.50;14.13;;;4.40;99.90;;;;;;4955092;28;20085;-48
2022/12/08 03:51:43;;;;;;;21.23;14.35;;;4.40;99.90;;;;;;4954959;28;20033;-51
2022/12/08 03:54:08;;;;;;;25.73;14.60;;;4.40;99.90;;;;;;4954282;28;20023;-47
2022/12/08 03:56:36;;;;;;;28.02;13.88;;;4.40;99.90;;;;;;4954967;28;20039;-47
2022/12/08 03:59:03;;;;;;;25.33;15.23;;;4.40;99.90;;;;;;4955245;28;20451;-49
2022/12/08 04:01:28;;;;;;;23.73;14.65;;;4.40;99.90;;;;;;4953564;28;20516;-48
2022/12/08 04:03:54;;;;;;;24.10;13.98;;;4.40;99.90;;;;;;4954156;28;20035;-46
2022/12/08 04:06:20;;;;;;;21.20;15.30;;;4.30;99.90;;;;;;4954603;28;20027;-51
2022/12/08 04:08:46;;;;;;;26.85;15.05;;;4.30;99.90;;;;;;4969708;28;20566;-48
2022/12/08 04:11:12;;;;;;;23.17;13.27;;;4.30;99.90;;;;;;4954772;28;20114;-48
2022/12/08 04:13:39;;;;;;;24.10;14.00;;;4.40;99.90;;;;;;4953937;28;20433;-53
2022/12/08 04:16:06;;;;;;;24.15;14.95;;;4.40;99.90;;;;;;4954716;28;20031;-52
2022/12/08 04:18:32;;;;;;;21.45;14.13;;;4.40;99.90;;;;;;4954556;28;20487;-49
2022/12/08 04:20:58;;;;;;;24.15;14.35;;;4.40;99.90;;;;;;4954424;28;20388;-50
2022/12/08 04:23:23;;;;;;;21.88;13.82;;;4.40;99.90;;;;;;4953689;28;20307;-53
2022/12/08 04:25:51;;;;;;;24.48;13.98;;;4.40;99.90;;;;;;4954468;28;20020;-52
2022/12/08 04:28:16;;;;;;;25.30;14.52;;;4.40;99.90;;;;;;4954280;28;20027;-50
2022/12/08 04:30:42;;;;;;;22.83;13.48;;;4.30;99.90;;;;;;4954425;28;20031;-48
2022/12/08 04:33:07;;;;;;;23.50;14.20;;;4.30;99.90;;;;;;4951609;28;20454;-48
2022/12/08 04:35:33;;;;;;;22.30;14.10;;;4.30;99.90;;;;;;4954292;28;20078;-54
2022/12/08 04:37:59;;;;;;;25.33;14.95;;;4.30;99.90;;;;;;4954181;28;20036;-50
2022/12/08 04:40:24;;;;;;;24.00;13.57;;;4.30;99.90;;;;;;4954231;28;20314;-48
2022/12/08 04:42:50;;;;;;;26.67;14.82;;;4.30;99.90;;;;;;4953467;28;20510;-48
2022/12/08 04:45:16;;;;;;;23.15;13.98;;;4.30;99.90;;;;;;4953739;28;20041;-48
2022/12/08 04:47:41;;;;;;;23.10;14.65;;;4.30;99.90;;;;;;4953774;28;20077;-47
2022/12/08 04:50:07;;;;;;;28.00;15.73;;;4.40;99.90;;;;;;4954087;28;20104;-51
2022/12/08 04:52:33;;;;;;;22.35;14.15;;;4.40;99.90;;;;;;4953371;28;20059;-50
2022/12/08 04:54:59;;;;;;;22.98;15.40;;;4.50;99.90;;;;;;4953965;28;20073;-50
2022/12/08 04:57:24;;;;;;;27.20;14.50;;;4.50;99.90;;;;;;4953820;28;20063;-53
2022/12/08 04:59:50;;;;;;;25.17;14.20;;;4.40;99.90;;;;;;4953871;28;20027;-51
2022/12/08 05:02:15;;;;;;;24.23;13.98;;;4.50;99.90;;;;;;4953234;28;20035;-48
2022/12/08 05:04:41;;;;;;;25.20;15.68;;;4.40;99.90;;;;;;4953885;28;20023;-49
2022/12/08 05:07:06;;;;;;;26.63;14.95;;;4.40;99.90;;;;;;4953882;28;20031;-51
2022/12/08 05:09:32;;;;;;;22.67;13.48;;;4.40;99.90;;;;;;4953916;28;20027;-51
2022/12/08 05:11:57;;;;;;;24.80;14.23;;;4.40;99.90;;;;;;4953145;28;20069;-49
2022/12/08 05:14:23;;;;;;;25.52;13.80;;;4.40;99.90;;;;;;4953895;28;20027;-52
2022/12/08 05:16:48;;;;;;;28.67;14.38;;;4.40;99.90;;;;;;4953668;28;20709;-46
2022/12/08 05:19:14;;;;;;;20.60;13.80;;;4.30;99.90;;;;;;4953582;28;20035;-47
2022/12/08 05:21:40;;;;;;;26.17;15.15;;;4.20;99.90;;;;;;4953411;28;20032;-50
2022/12/08 05:24:06;;;;;;;26.45;13.27;;;4.20;99.90;;;;;;4967640;28;20023;-50
2022/12/08 05:26:31;;;;;;;24.35;14.35;;;4.20;99.90;;;;;;4953455;28;20027;-50
2022/12/08 05:28:57;;;;;;;21.52;13.27;;;4.10;99.90;;;;;;4953544;28;20024;-50
2022/12/08 05:31:23;;;;;;;20.15;13.38;;;4.10;99.90;;;;;;4953714;28;20398;-51
2022/12/08 05:33:50;;;;;;;19.85;12.82;;;4.10;99.90;;;;;;4951068;28;20510;-49
2022/12/08 05:36:16;;;;;;;22.83;12.95;;;4.10;99.90;;;;;;4953509;28;20436;-48
2022/12/08 05:38:42;;;;;;;21.13;13.48;;;4.10;99.90;;;;;;4968435;28;20023;-47
2022/12/08 05:41:11;;;;;;;23.27;13.90;;;4.00;99.90;;;;;;4953593;28;20090;-47
2022/12/08 05:43:37;;;;;;;21.85;13.65;;;4.00;99.90;;;;;;4952741;28;20031;-48
2022/12/08 05:46:03;;;;;;;21.75;13.95;;;4.00;99.90;;;;;;4953532;28;20507;-48
2022/12/08 05:48:28;;;;;;;24.50;13.73;;;4.00;99.90;;;;;;4953309;28;20034;-51
2022/12/08 05:50:54;;;;;;;20.13;14.40;;;4.10;99.90;;;;;;4954501;28;20081;-48
2022/12/08 05:53:19;;;;;;;32.90;15.70;;;4.00;99.90;;;;;;4952881;28;20114;-50
2022/12/08 05:55:46;;;;;;;21.20;13.07;;;4.00;99.90;;;;;;4968140;28;20522;-50
2022/12/08 05:58:15;;;;;;;25.13;14.88;;;4.10;99.90;;;;;;4955553;28;20174;-51
2022/12/08 06:00:41;;;;;;;20.67;13.50;;;4.10;99.90;;;;;;4957140;28;20036;-47
2022/12/08 06:03:07;;;;;;;24.65;13.70;;;4.10;99.90;;;;;;4956354;28;20098;-48
2022/12/08 06:05:34;;;;;;;22.52;13.18;;;4.10;99.90;;;;;;4957069;28;20030;-46
2022/12/08 06:07:59;;;;;;;23.00;14.32;;;4.20;99.90;;;;;;4957066;28;20028;-46
2022/12/08 06:10:25;;;;;;;22.42;13.43;;;4.20;99.90;;;;;;4956906;28;20298;-48
2022/12/08 06:12:51;;;;;;;22.35;13.50;;;4.10;99.90;;;;;;4956285;28;20023;-48
2022/12/08 06:15:16;;;;;;;21.77;13.15;;;4.10;99.90;;;;;;4956833;28;20099;-49
2022/12/08 06:17:42;;;;;;;24.92;13.52;;;4.10;99.90;;;;;;4956645;28;20059;-53
2022/12/08 06:20:08;;;;;;;21.38;13.43;;;4.10;99.90;;;;;;4971485;28;20019;-50
2022/12/08 06:22:34;;;;;;;20.42;11.85;;;4.20;99.90;;;;;;4955889;28;20035;-49
2022/12/08 06:25:00;;;;;;;21.05;12.23;;;4.20;99.90;;;;;;4956519;28;20075;-49
2022/12/08 06:27:26;;;;;;;19.77;12.25;;;4.20;99.90;;;;;;4955360;28;20054;-49
2022/12/08 06:29:51;;;;;;;22.45;13.45;;;4.20;99.90;;;;;;4956615;28;20023;-47
2022/12/08 06:32:17;;;;;;;20.85;12.57;;;4.20;99.90;;;;;;4956093;28;20031;-50
2022/12/08 06:34:43;;;;;;;20.40;12.20;;;4.20;99.90;;;;;;4954570;28;20058;-53
2022/12/08 06:37:08;;;;;;;26.10;12.73;;;4.20;99.90;;;;;;4956251;28;20085;-46
2022/12/08 06:39:34;;;;;;;19.92;13.27;;;4.20;99.90;;;;;;4956462;28;20101;-48
2022/12/08 06:44:44;;;;;;;26.48;13.52;;;4.10;99.90;;;;;;4956515;29;20042;-51
2022/12/08 06:47:10;;;;;;;20.05;13.45;;;4.10;99.90;;;;;;4971048;28;20027;-49
2022/12/08 06:49:35;;;;;;;21.92;13.20;;;4.10;99.90;;;;;;4956533;28;20102;-50
2022/12/08 06:52:01;;;;;;;20.10;12.82;;;4.00;99.90;;;;;;4954176;28;20028;-49
2022/12/08 06:54:26;;;;;;;19.23;12.70;;;4.00;99.90;;;;;;4956489;28;20034;-50
2022/12/08 06:56:52;;;;;;;24.63;12.98;;;4.00;99.90;;;;;;4955941;28;20063;-51
2022/12/08 06:59:18;;;;;;;20.70;13.52;;;4.00;99.90;;;;;;4970903;28;20065;-50
2022/12/08 07:01:44;;;;;;;26.23;14.95;;;4.10;99.90;;;;;;4955974;28;20435;-49
2022/12/08 07:04:10;;;;;;;20.95;13.60;;;4.10;99.90;;;;;;4955135;28;20035;-49
2022/12/08 07:06:36;;;;;;;21.75;13.43;;;4.00;99.90;;;;;;4955770;28;20031;-48
2022/12/08 07:09:02;;;;;;;22.27;13.73;;;4.00;99.90;;;;;;4954858;28;20400;-47
2022/12/08 07:11:28;;;;;;;22.77;13.00;;;4.00;99.90;;;;;;4955853;28;20082;-49
2022/12/08 07:13:56;;;;;;;24.40;14.73;;;4.00;99.90;;;;;;4955027;28;20435;-52
2022/12/08 07:16:21;;;;;;;23.77;13.65;;;4.00;99.90;;;;;;4955576;28;20502;-50
2022/12/08 07:18:47;;;;;;;27.50;14.60;;;4.00;99.90;;;;;;4955614;28;20028;-50
2022/12/08 07:21:16;;;;;;;27.90;16.23;;;4.00;99.90;;;;;;4954213;28;20023;-50
2022/12/08 07:23:44;;;;;;;23.02;14.07;;;4.00;99.90;;;;;;4954715;28;20443;-53
2022/12/08 07:26:11;;;;;;;26.85;15.45;;;3.90;99.90;;;;;;4955483;28;20026;-47
2022/12/08 07:28:39;;;;;;;27.58;16.30;;;3.90;99.90;;;;;;4954274;28;20114;-51
2022/12/08 07:31:06;;;;;;;28.73;14.82;;;3.80;99.90;;;;;;4955327;28;20028;-49
2022/12/08 07:33:33;;;;;;;26.42;14.70;;;3.80;99.90;;;;;;4952579;28;20042;-53
2022/12/08 07:36:05;;;;;;;23.88;13.80;;;3.80;99.90;;;;;;4955783;28;20102;-53
2022/12/08 07:38:31;;;;;;;25.98;15.30;;;3.80;99.90;;;;;;4955691;28;20447;-47
2022/12/08 07:40:57;;;;;;;26.05;13.75;;;3.80;99.90;;;;;;4955185;28;20043;-48
2022/12/08 07:43:22;;;;;;;26.45;15.20;;;3.70;99.90;;;;;;4954323;28;20121;-54
2022/12/08 07:45:49;;;;;;;28.55;17.13;;;3.70;99.90;;;;;;4955170;28;20019;-48
2022/12/08 07:48:14;;;;;;;27.92;15.50;;;3.60;99.90;;;;;;4955133;28;20031;-49
2022/12/08 07:50:40;;;;;;;26.80;15.32;;;3.60;99.90;;;;;;4955026;28;20027;-53
2022/12/08 07:53:07;;;;;;;25.27;15.55;;;3.60;99.90;;;;;;4954258;28;20035;-50
2022/12/08 07:55:32;;;;;;;27.73;15.10;;;3.60;99.90;;;;;;4953754;28;20038;-52
2022/12/08 07:57:58;;;;;;;28.77;14.93;;;3.50;99.90;;;;;;4954756;28;20027;-51
2022/12/08 08:00:24;;;;;;;26.05;15.27;;;3.60;99.90;;;;;;4954810;28;20118;-50
2022/12/08 08:02:49;;;;;;;25.88;14.68;;;3.60;99.90;;;;;;4954099;28;20086;-50
2022/12/08 08:05:15;;;;;;;31.08;16.88;;;3.60;99.90;;;;;;4954545;28;20031;-48
2022/12/08 08:07:42;;;;;;;26.05;16.45;;;3.60;99.90;;;;;;4954757;28;20023;-48
2022/12/08 08:10:09;;;;;;;26.45;14.35;;;3.60;99.90;;;;;;4954767;28;20031;-52
2022/12/08 08:12:36;;;;;;;23.98;14.38;;;3.60;99.90;;;;;;4953979;28;20037;-54
2022/12/08 08:15:03;;;;;;;23.55;15.35;;;3.70;99.90;;;;;;4953339;28;20074;-51
2022/12/08 08:17:29;;;;;;;22.00;14.38;;;3.70;99.90;;;;;;4954819;28;20041;-48
2022/12/08 08:19:54;;;;;;;24.60;14.05;;;3.70;99.90;;;;;;4954527;28;20491;-52
2022/12/08 08:22:20;;;;;;;24.45;13.50;;;3.70;99.90;;;;;;4953735;28;20391;-47
2022/12/08 08:24:45;;;;;;;27.58;14.18;;;3.70;99.90;;;;;;4954441;28;20095;-51
2022/12/08 08:27:11;;;;;;;23.50;12.98;;;3.80;99.90;;;;;;4969115;28;20032;-53
2022/12/08 08:29:37;;;;;;;23.55;12.95;;;3.80;99.90;;;;;;4954350;28;20020;-50
2022/12/08 08:32:02;;;;;;;21.20;13.73;;;3.80;99.90;;;;;;4954879;28;20031;-48
2022/12/08 08:34:28;;;;;;;24.75;13.05;;;3.90;99.90;;;;;;4955210;28;20039;-47
2022/12/08 08:36:53;;;;;;;23.45;13.77;;;3.90;99.90;;;;;;4956395;28;20510;-49
2022/12/08 08:39:19;;;;;;;26.00;13.20;;;3.90;99.90;;;;;;4956001;28;20023;-48
2022/12/08 08:41:44;;;;;;;24.73;13.23;;;3.90;99.90;;;;;;4955361;28;20270;-49
2022/12/08 08:44:12;;;;;;;25.38;13.57;;;3.90;99.90;;;;;;4953891;28;20395;-49
2022/12/08 08:46:38;;;;;;;23.67;13.40;;;4.00;99.90;;;;;;4957430;28;20398;-52
2022/12/08 08:49:03;;;;;;;21.15;12.93;;;4.00;99.90;;;;;;4973613;28;20031;-52
2022/12/08 08:51:29;;;;;;;23.15;14.00;;;4.00;99.90;;;;;;4973300;28;20034;-48
2022/12/08 08:53:54;;;;;;;18.10;11.85;;;4.00;99.90;;;;;;4972739;28;20391;-52
2022/12/08 08:56:20;;;;;;;23.05;12.90;;;4.00;99.90;;;;;;4957168;28;20030;-54
2022/12/08 08:58:48;;;;;;;21.38;12.77;;;4.10;99.90;;;;;;4958026;28;20042;-46
2022/12/08 09:01:16;;;;;;;21.23;14.18;;;4.10;99.90;;;;;;4953410;28;20027;-51
2022/12/08 09:03:41;;;;;;;20.08;12.80;;;4.10;99.90;;;;;;4965499;28;20023;-45
2022/12/08 09:06:07;;;;;;;19.40;13.73;;;4.00;99.90;;;;;;4953929;28;20019;-50
2022/12/08 09:08:32;;;;;;;22.08;12.50;;;4.00;99.90;;;;;;4953528;28;20062;-51
2022/12/08 09:10:58;;;;;;;24.08;13.43;;;4.10;99.90;;;;;;4953535;28;20069;-53
2022/12/08 09:13:23;;;;;;;25.23;13.80;;;4.00;99.90;;;;;;4969422;28;20622;-53
2022/12/08 09:15:49;;;;;;;18.88;12.25;;;4.00;99.90;;;;;;4972870;28;20106;-57
2022/12/08 09:18:14;;;;;;;21.73;12.60;;;4.10;99.90;;;;;;4965786;28;20078;-52
2022/12/08 09:20:40;;;;;;;20.00;11.27;;;4.10;99.90;;;;;;4977698;28;20487;-50
2022/12/08 09:23:05;;;;;;;22.90;12.40;;;4.20;99.90;;;;;;4971794;28;20035;-50
2022/12/08 09:25:31;;;;;;;23.75;13.32;;;4.20;99.90;;;;;;4956220;28;20030;-49
2022/12/08 09:27:56;;;;;;;23.35;13.30;;;4.20;99.90;;;;;;4953132;28;20023;-51
2022/12/08 09:30:22;;;;;;;24.85;12.52;;;4.20;99.90;;;;;;4953406;28;20027;-48
2022/12/08 09:32:47;;;;;;;27.27;12.98;;;4.30;99.90;;;;;;4952512;28;20035;-50
2022/12/08 09:35:13;;;;;;;23.05;13.10;;;4.30;99.90;;;;;;4953507;28;20097;-50
2022/12/08 09:37:38;;;;;;;19.52;12.27;;;4.30;99.90;;;;;;4968767;28;20031;-53
2022/12/08 09:40:05;;;;;;;17.65;11.82;;;4.40;99.90;;;;;;4972514;28;20031;-52
2022/12/08 09:42:49;;;;;;;22.02;12.93;;;4.50;99.90;;;;;;4970545;28;20031;-48
2022/12/08 09:45:16;;;;;;;21.95;12.50;;;4.40;99.90;;;;;;4972593;28;20023;-48
2022/12/08 09:48:05;;;;;;;17.42;11.35;;;4.40;99.90;;;;;;4964815;28;20028;-50
2022/12/08 09:50:36;;;;;;;19.08;11.77;;;4.40;99.90;;;;;;4945976;28;20504;-48
2022/12/08 09:53:11;;;;;;;21.17;12.27;;;4.50;99.90;;;;;;4952552;28;20480;-47
2022/12/08 09:55:41;;;;;;;21.15;11.85;;;4.50;99.90;;;;;;4953286;28;20019;-50
2022/12/08 09:58:26;;;;;;;23.67;13.48;;;4.50;99.90;;;;;;4953555;28;20023;-47
2022/12/08 10:00:51;;;;;;;19.17;12.00;;;4.40;99.90;;;;;;4953270;28;20183;-50
2022/12/08 10:03:17;;;;;;;19.13;12.57;;;4.40;99.90;;;;;;4957040;28;20055;-58
2022/12/08 10:05:58;;;;;;;20.92;12.77;;;4.50;99.90;;;;;;4963812;28;20090;-54
2022/12/08 10:08:32;;;;;;;19.70;12.02;;;4.50;99.90;;;;;;4965813;28;20403;-55
2022/12/08 10:11:09;;;;;;;21.25;12.40;;;4.50;99.90;;;;;;4967260;28;20031;-59
2022/12/08 10:13:51;;;;;;;18.63;12.00;;;4.50;99.90;;;;;;4966936;28;20035;-54
2022/12/08 10:16:20;;;;;;;18.00;12.50;;;4.60;99.90;;;;;;4953375;28;20110;-48
2022/12/08 10:18:51;;;;;;;22.13;12.82;;;4.50;99.90;;;;;;4953596;28;20059;-54
2022/12/08 10:21:24;;;;;;;20.65;11.90;;;4.50;99.90;;;;;;4953446;28;20035;-50
2022/12/08 10:23:54;;;;;;;22.00;11.75;;;4.60;99.90;;;;;;4952515;28;20031;-51
2022/12/08 10:26:21;;;;;;;21.13;12.48;;;4.60;99.90;;;;;;4953198;28;20031;-50
2022/12/08 10:28:47;;;;;;;25.30;14.00;;;4.60;99.90;;;;;;4953364;28;20030;-52
2022/12/08 10:31:23;;;;;;;17.48;11.25;;;4.60;99.90;;;;;;4953288;28;20032;-55
2022/12/08 10:33:57;;;;;;;17.58;11.60;;;4.70;99.90;;;;;;4952786;28;20042;-51
2022/12/08 10:36:48;;;;;;;21.05;12.07;;;4.70;99.90;;;;;;4956415;28;20083;-52
2022/12/08 10:39:42;;;;;;;17.85;11.27;;;4.80;99.90;;;;;;4966236;28;20067;-48
2022/12/08 10:42:17;;;;;;;19.38;11.60;;;4.80;99.90;;;;;;4949868;28;20087;-50
2022/12/08 10:44:51;;;;;;;20.50;11.27;;;4.90;99.90;;;;;;4954046;28;20154;-50
2022/12/08 10:47:20;;;;;;;21.77;10.65;;;5.00;99.90;;;;;;4956183;28;20023;-48
2022/12/08 10:49:46;;;;;;;21.13;11.52;;;5.00;99.90;;;;;;4955988;28;20031;-55
2022/12/08 10:52:24;;;;;;;19.10;11.45;;;5.10;99.90;;;;;;4956919;28;20085;-56
2022/12/08 10:54:53;;;;;;;16.08;10.90;;;5.20;99.90;;;;;;4955217;28;20551;-50
2022/12/08 10:57:21;;;;;;;20.10;11.10;;;5.20;99.90;;;;;;4954384;28;20051;-52
2022/12/08 10:59:46;;;;;;;19.60;10.15;;;5.10;99.90;;;;;;4969484;28;20495;-54
2022/12/08 11:02:19;;;;;;;18.05;10.50;;;5.10;99.90;;;;;;4955238;28;20042;-55
2022/12/08 11:04:45;;;;;;;16.83;10.45;;;5.10;99.90;;;;;;4955714;28;20031;-55
2022/12/08 11:07:11;;;;;;;17.30;10.93;;;5.20;99.90;;;;;;4969016;28;20507;-53
2022/12/08 11:09:47;;;;;;;15.30;10.27;;;5.20;99.90;;;;;;4953825;28;20051;-54
2022/12/08 11:12:14;;;;;;;17.67;10.85;;;5.20;99.90;;;;;;4954761;28;20085;-54
2022/12/08 11:14:42;;;;;;;17.45;11.18;;;5.20;99.90;;;;;;4956606;28;20520;-52
2022/12/08 11:17:15;;;;;;;19.05;11.80;;;5.20;99.90;;;;;;4956720;28;20467;-53
2022/12/08 11:20:07;;;;;;;14.63;10.20;;;5.30;99.90;;;;;;4970732;28;20110;-51
2022/12/08 11:22:40;;;;;;;15.40;8.95;;;5.30;99.90;;;;;;4939852;28;20042;-48
2022/12/08 11:25:22;;;;;;;13.90;9.32;;;5.30;99.90;;;;;;4976442;28;20053;-54
2022/12/08 11:27:50;;;;;;;16.98;9.75;;;5.30;99.90;;;;;;4973019;28;20023;-56
2022/12/08 11:30:20;;;;;;;16.25;9.55;;;5.30;99.90;;;;;;4941182;29;20528;-57
2022/12/08 11:32:49;;;;;;;16.48;10.23;;;5.40;99.90;;;;;;4969665;28;20543;-56
2022/12/08 11:35:37;;;;;;;12.30;8.40;;;5.50;99.90;;;;;;4954928;28;20114;-52
2022/12/08 11:38:24;;;;;;;14.63;8.27;;;5.60;99.90;;;;;;4953830;28;20102;-56
2022/12/08 11:41:03;;;;;;;11.93;8.50;;;5.80;99.90;;;;;;4967717;28;20470;-54
2022/12/08 11:43:56;;;;;;;13.65;8.50;;;5.90;99.90;;;;;;4952625;28;20038;-59
2022/12/08 11:46:47;;;;;;;12.13;8.38;;;6.00;99.90;;;;;;4954358;28;20064;-52
2022/12/08 11:49:13;;;;;;;14.70;8.57;;;6.20;99.90;;;;;;4954792;28;20026;-55
2022/12/08 11:51:45;;;;;;;12.10;7.78;;;6.30;99.90;;;;;;4956098;28;20035;-53
2022/12/08 11:54:26;;;;;;;10.88;7.22;;;6.30;99.90;;;;;;4954690;28;20035;-54
2022/12/08 11:57:00;;;;;;;14.77;7.07;;;6.30;99.90;;;;;;4969966;28;20031;-51
2022/12/08 11:59:37;;;;;;;13.05;8.18;;;6.20;99.90;;;;;;4956746;28;20032;-56
2022/12/08 12:02:04;;;;;;;11.35;8.38;;;6.20;99.90;;;;;;4953627;28;20027;-49
2022/12/08 12:04:39;;;;;;;12.05;8.02;;;6.10;99.90;;;;;;4955795;28;20376;-49
2022/12/08 12:07:08;;;;;;;11.05;7.50;;;6.10;99.90;;;;;;4957705;28;20387;-59
2022/12/08 12:09:49;;;;;;;13.70;7.97;;;6.00;99.90;;;;;;4973983;28;20027;-60
2022/12/08 12:12:36;;;;;;;11.30;7.57;;;6.10;99.90;;;;;;4959352;28;20024;-56
2022/12/08 12:15:11;;;;;;;12.00;7.43;;;6.10;99.90;;;;;;4959374;28;20103;-54
2022/12/08 12:17:39;;;;;;;14.43;7.90;;;6.10;99.90;;;;;;4959466;28;20023;-56
2022/12/08 12:20:28;;;;;;;11.43;8.52;;;6.00;99.90;;;;;;4961171;28;20050;-53
2022/12/08 12:23:44;;;;;;;10.93;7.88;;;6.00;99.90;;;;;;4957481;29;20050;-58
2022/12/08 12:26:19;;;;;;;12.70;8.43;;;6.00;99.90;;;;;;4958954;28;20147;-51
2022/12/08 12:28:56;;;;;;;15.88;8.88;;;6.00;99.90;;;;;;4958251;28;20030;-57
2022/12/08 12:31:28;;;;;;;11.63;8.30;;;6.00;99.90;;;;;;4955179;28;20031;-59
2022/12/08 12:34:04;;;;;;;14.00;8.30;;;6.10;99.90;;;;;;4953248;28;20050;-53
2022/12/08 12:36:31;;;;;;;11.40;7.97;;;6.10;99.90;;;;;;4957258;28;20046;-51
2022/12/08 12:39:00;;;;;;;12.02;8.38;;;6.10;99.90;;;;;;4973617;28;20047;-53
2022/12/08 12:41:40;;;;;;;10.82;7.18;;;6.20;99.90;;;;;;4960754;28;20032;-55
2022/12/08 12:44:12;;;;;;;14.55;8.18;;;6.10;99.90;;;;;;4960444;28;20023;-57
2022/12/08 12:46:49;;;;;;;12.10;7.80;;;5.90;99.90;;;;;;4962003;28;20030;-54
2022/12/08 12:49:36;;;;;;;13.07;7.45;;;5.90;99.90;;;;;;4958053;28;20038;-51
2022/12/08 12:52:04;;;;;;;14.23;7.60;;;5.80;99.90;;;;;;4954263;28;20113;-54
2022/12/08 12:54:30;;;;;;;14.73;8.10;;;5.80;99.90;;;;;;4957000;28;20023;-57
2022/12/08 12:57:04;;;;;;;10.25;7.03;;;5.80;99.90;;;;;;4974580;28;20027;-52